• Join FlightAware (Why Join?)
  • Login
  • US Flag 
02:58AM EDT


 

Airport Tracker/Info


-or-


 

Live Flight TrackerFlight Track Log ✈ AAL1459 ✈ 10-Jul-2013 ✈ KORD - KRNO

Flight Track Log - Related Links

Times and Time Zones

All times are in EDT time to prevent confusion due to time zone crossing. See the AAL1459 flight status page for this flight to view local times or setup timezone preferences in your user account.

Time Position Orientation Groundspeed Altitude Reporting Facility
EDT Latitude Longitude Course Direction KTS MPH feet Rate Location/Type
07:30PM 42.0167 -87.9667 261° West 172 198 2,600  Level Chicago TRACON
07:31PM 42.0667 -88.0000 334° Northwest 235 270 4,200 1,860 Climbing Chicago TRACON
07:33PM 42.1528 -88.1344 311° West 277 319 8,300 2,280 Climbing Chicago Center
07:34PM 42.1111 -88.2464 243° Southwest 283 326 11,300 2,220 Climbing Chicago Center
07:35PM 42.0717 -88.3458 242° Southwest 302 348 12,900 1,800 Climbing Chicago Center
07:36PM 41.8793 -88.7857 261° West  Level FlightAware Approximate
07:37PM 42.0281 -88.4592 243° Southwest 331 381 15,100  Level Chicago Center
07:38PM 42.0000 -88.5872 254° West 356 410 17,400 2,340 Climbing Chicago Center
07:39PM 41.9922 -88.7214 266° West 362 417 19,900 2,460 Climbing Chicago Center
07:40PM 41.9628 -88.8789 256° West 371 427 22,500 2,040 Climbing Chicago Center
07:41PM 41.9156 -89.0083 244° Southwest 388 447 24,200 1,560 Climbing Chicago Center
07:42PM 41.8714 -89.1442 246° West 401 461 25,800 1,500 Climbing Chicago Center
07:43PM 41.8642 -89.2928 266° West 410 472 27,400 1,440 Climbing Chicago Center
07:44PM 41.8558 -89.4433 266° West 408 470 28,800 1,680 Climbing Chicago Center
07:45PM 41.8444 -89.6239 265° West 411 473 30,900 1,920 Climbing Chicago Center
07:46PM 41.8361 -89.7681 266° West 396 456 32,800 1,260 Climbing Chicago Center
07:47PM 41.8278 -89.9125 266° West 391 450 33,500 720 Climbing Chicago Center
07:48PM 41.8208 -90.0461 266° West 399 459 34,400 1,080 Climbing Chicago Center
07:49PM 41.8094 -90.2247 265° West 403 464 35,800 720 Climbing Chicago Center
07:50PM 41.8008 -90.3697 265° West 395 455 36,000 60 Climbing Chicago Center
07:51PM 41.7886 -90.5192 264° West 410 472 36,000  Level Chicago Center
07:52PM 41.7783 -90.6708 265° West 405 466 36,000  Level Chicago Center
07:53PM 41.7686 -90.8192 265° West 403 464 36,000  Level Chicago Center
07:54PM 41.7556 -90.9972 264° West 403 464 36,000  Level Chicago Center
07:55PM 41.7442 -91.1447 264° West 403 464 36,000  Level Chicago Center
07:56PM 41.7339 -91.2908 265° West 399 459 36,000  Level Chicago Center
07:57PM 41.7233 -91.4369 265° West 398 458 36,000  Level Chicago Center
07:58PM 41.7119 -91.5831 264° West 398 458 36,000  Level Chicago Center
07:59PM 41.7011 -91.7297 264° West 398 458 36,000  Level Chicago Center
08:00PM 41.6867 -91.9069 264° West 401 461 36,000  Level Chicago Center
08:01PM 41.6747 -92.0558 264° West 404 465 36,000  Level Chicago Center
08:02PM 41.6622 -92.2028 264° West 403 464 36,000  Level Chicago Center
08:03PM 41.6506 -92.3517 264° West 404 465 36,000  Level Chicago Center
08:04PM 41.6375 -92.5019 263° West 409 471 36,000  Level Chicago Center
08:05PM 41.6222 -92.6833 264° West 411 473 36,000  Level Chicago Center
08:06PM 41.6106 -92.8178 263° West 410 472 36,000  Level Chicago Center
08:07PM 41.5961 -92.9681 263° West 411 473 36,000  Level Chicago Center
08:08PM 41.5811 -93.1464 264° West 408 470 36,000  Level Chicago Center
08:10PM 41.5681 -93.2936 263° West 406 467 36,000  Level Chicago Center
08:11PM 41.5539 -93.4375 263° West 399 459 36,000  Level Chicago Center
08:12PM 41.5386 -93.6097 263° West 393 452 36,000  Level Minneapolis Center
08:13PM 41.5242 -93.7547 262° West 397 457 36,000  Level Minneapolis Center
08:14PM 41.5094 -93.9300 264° West 400 460 36,000  Level Minneapolis Center
08:15PM 41.5003 -94.0764 265° West 403 464 36,000  Level Minneapolis Center
08:16PM 41.5036 -94.2314 272° West 397 457 36,000  Level Minneapolis Center
08:17PM 41.5028 -94.3808 270° West 400 460 36,000  Level Minneapolis Center
08:18PM 41.5033 -94.5278 270° West 396 456 36,000  Level Minneapolis Center
08:19PM 41.5044 -94.6747 271° West 396 456 36,000  Level Minneapolis Center
08:20PM 41.5042 -94.8225 270° West 397 457 36,000  Level Minneapolis Center
08:21PM 41.5047 -94.9981 270° West 396 456 36,000  Level Minneapolis Center
08:22PM 41.5053 -95.1433 270° West 394 453 36,000  Level Minneapolis Center
08:23PM 41.5039 -95.2900 269° West 396 456 36,000  Level Minneapolis Center
08:24PM 41.5042 -95.4367 270° West 397 457 36,000  Level Minneapolis Center
08:25PM 41.5033 -95.5822 270° West 395 455 36,000  Level Minneapolis Center
08:26PM 41.5022 -95.7539 270° West 405 466 36,000  Level Minneapolis Center
08:27PM 41.5028 -95.9011 270° West 402 463 36,000  Level Minneapolis Center
08:28PM 41.4992 -96.0506 268° West 404 465 36,000  Level Minneapolis Center
08:29PM 41.4819 -96.2003 261° West 405 466 36,000  Level Minneapolis Center
08:30PM 41.4644 -96.3475 261° West 406 467 36,000  Level Minneapolis Center
08:31PM 41.4425 -96.5281 261° West 411 473 36,000  Level Minneapolis Center
08:32PM 41.4258 -96.6756 261° West 407 468 36,000  Level Minneapolis Center
08:33PM 41.4089 -96.8253 261° West 409 471 36,000  Level Minneapolis Center
08:35PM 41.3914 -96.9736 261° West 407 468 36,000  Level Minneapolis Center
08:36PM 41.3742 -97.1236 261° West 410 472 36,000  Level Minneapolis Center
08:37PM 41.3533 -97.3025 261° West 409 471 36,000  Level Minneapolis Center
08:38PM 41.3344 -97.4553 261° West 411 473 36,000  Level Minneapolis Center
08:39PM 41.3164 -97.6058 261° West 412 474 36,000  Level Minneapolis Center
08:40PM 41.2981 -97.7536 261° West 408 470 36,000  Level Minneapolis Center
08:41PM 41.2806 -97.9008 261° West 406 467 36,000  Level Minneapolis Center
08:42PM 41.2622 -98.0489 261° West 406 467 36,000  Level Minneapolis Center
08:43PM 41.2433 -98.1964 260° West 406 467 36,000  Level Minneapolis Center
08:44PM 41.2217 -98.3722 261° West 404 465 36,000  Level Minneapolis Center
08:45PM 41.2064 -98.4861 260° West 405 466 36,000  Level Minneapolis Center
08:46PM 41.1844 -98.6614 261° West 404 465 36,000  Level Minneapolis Center
08:47PM 41.1647 -98.8117 260° West 409 471 36,000  Level Minneapolis Center
08:48PM 41.1444 -98.9603 260° West 412 474 36,000  Level Minneapolis Center
08:49PM 41.1206 -99.1375 260° West 408 470 36,000  Level Minneapolis Center
08:50PM 41.1017 -99.2764 260° West 407 468 36,000  Level Minneapolis Center
08:51PM 41.0814 -99.4242 260° West 408 470 36,000  Level Minneapolis Center
08:52PM 41.0611 -99.5719 260° West 410 472 36,000  Level Denver Center
08:53PM 41.0403 -99.7197 259° West 409 471 36,000  Level Denver Center
08:54PM 41.0172 -99.8836 259° West 406 467 36,000  Level Denver Center
08:55PM 40.9975 -100.0236 259° West 405 466 36,000  Level Denver Center
08:56PM 40.9764 -100.1850 260° West 401 461 36,000  Level Denver Center
08:57PM 40.9583 -100.3239 260° West 402 463 36,000  Level Denver Center
08:58PM 40.9267 -100.4839 255° West 403 464 36,000  Level Denver Center
08:59PM 40.8708 -100.6136 240° Southwest 421 484 36,000  Level Denver Center
09:00PM 40.8106 -100.7458 239° Southwest 428 493 36,000  Level Denver Center
09:01PM 40.7358 -100.9028 238° Southwest 436 502 36,000  Level Denver Center
09:02PM 40.6633 -101.0172 230° Southwest 428 493 36,000  Level Denver Center
09:03PM 40.6136 -101.1467 243° Southwest 417 480 36,000  Level Denver Center
09:04PM 40.5894 -101.3089 259° West 405 466 36,000  Level Denver Center
09:05PM 40.5703 -101.4503 260° West 408 470 36,000  Level Denver Center
09:06PM 40.5483 -101.6142 260° West 408 470 36,000  Level Denver Center
09:08PM 40.5300 -101.7553 260° West 409 471 36,000  Level Denver Center
09:09PM 40.5086 -101.9197 260° West 408 470 36,000  Level Denver Center
09:10PM 40.4892 -102.0606 260° West 411 473 36,000  Level Denver Center
09:11PM 40.4669 -102.2469 261° West 405 466 36,000  Level Denver Center
09:12PM 40.4500 -102.3875 261° West 407 468 36,000  Level Denver Center
09:13PM 40.4353 -102.5528 263° West 408 470 36,000  Level Denver Center
09:14PM 40.4233 -102.6817 263° West 406 467 36,000  Level Denver Center
09:15PM 40.4094 -102.8294 263° West 409 471 36,000  Level Denver Center
09:16PM 40.3953 -103.0044 264° West 404 465 36,000  Level Denver Center
09:17PM 40.3842 -103.1511 264° West 406 467 36,000  Level Denver Center
09:18PM 40.3925 -103.2703 275° West 408 470 36,000  Level Denver Center
09:19PM 40.4067 -103.4478 276° West 411 473 36,000  Level Denver Center
09:20PM 40.4181 -103.5981 276° West 414 476 36,000  Level Denver Center
09:21PM 40.4300 -103.7486 276° West 417 480 36,000  Level Denver Center
09:22PM 40.4408 -103.8975 276° West 414 476 36,000  Level Denver Center
09:23PM 40.4531 -104.0761 275° West 413 475 36,000  Level Denver Center
09:24PM 40.4639 -104.2258 275° West 415 478 36,000  Level Denver Center
09:25PM 40.4747 -104.3769 275° West 417 480 36,000  Level Denver Center
09:26PM 40.4847 -104.5267 275° West 416 479 36,000  Level Denver Center
09:27PM 40.4944 -104.6778 275° West 418 481 36,000  Level Denver Center
09:28PM 40.5047 -104.8311 275° West 423 487 36,000  Level Denver Center
09:29PM 40.5122 -104.9550 275° West 426 490 36,000  Level Denver Center
09:30PM 40.5233 -105.1381 275° West 421 484 36,000  Level Denver Center
09:31PM 40.5342 -105.3203 275° West 419 482 36,000  Level Denver Center
09:32PM 40.5433 -105.4756 274° West 426 490 36,000  Level Denver Center
09:33PM 40.5522 -105.6300 274° West 426 490 36,000 300 Level Denver Center
09:34PM 40.5600 -105.7833 274° West 424 488 36,700 780 Climbing Denver Center
09:35PM 40.5694 -105.9369 275° West 424 488 37,700 600 Climbing Denver Center
09:36PM 40.5803 -106.1194 275° West 420 483 38,000 120 Climbing Denver Center
09:37PM 40.5867 -106.2700 273° West 421 484 38,000  Level Denver Center
09:39PM 40.5947 -106.4189 274° West 425 489 38,000  Level Denver Center
09:40PM 40.6014 -106.5622 274° West 427 491 38,000  Level Denver Center
09:41PM 40.6092 -106.7150 274° West 422 486 38,000  Level Denver Center
09:42PM 40.6178 -106.8978 274° West 418 481 38,000  Level Denver Center
09:43PM 40.6250 -107.0494 274° West 417 480 38,000  Level Denver Center
09:44PM 40.6319 -107.2144 273° West 416 479 38,000  Level Denver Center
09:45PM 40.6358 -107.3214 273° West 419 482 38,000  Level Denver Center
09:46PM 40.6444 -107.5142 273° West 416 479 38,000  Level Denver Center
09:47PM 40.6500 -107.6833 273° West 416 479 38,000  Level Denver Center
09:48PM 40.6550 -107.8306 273° West 419 482 38,000  Level Denver Center
09:49PM 40.6622 -108.0025 273° West 422 486 38,000  Level Denver Center
09:50PM 40.6678 -108.1492 273° West 422 486 38,000  Level Denver Center
09:51PM 40.6728 -108.2983 273° West 424 488 38,000  Level Denver Center
09:52PM 40.6783 -108.4711 272° West 425 489 38,000  Level Denver Center
09:53PM 40.6831 -108.6186 272° West 425 489 38,000  Level Denver Center
09:54PM 40.6881 -108.7892 272° West 419 482 38,000  Level Denver Center
09:55PM 40.6919 -108.9594 272° West 419 482 38,000  Level Denver Center
09:56PM 40.6969 -109.1494 272° West 413 475 38,000  Level Salt Lake Center
09:57PM 40.7025 -109.2969 273° West 417 480 38,000  Level Salt Lake Center
09:58PM 40.7058 -109.4683 272° West 419 482 38,000  Level Salt Lake Center
09:59PM 40.7094 -109.6164 272° West 423 487 38,000  Level Salt Lake Center
10:00PM 40.7122 -109.7872 271° West 420 483 38,000  Level Salt Lake Center
10:01PM 40.7147 -109.9331 271° West 417 480 38,000  Level Salt Lake Center
10:03PM 40.7178 -110.1044 271° West 420 483 38,000  Level Salt Lake Center
10:04PM 40.7203 -110.2542 271° West 421 484 38,000  Level Salt Lake Center
10:05PM 40.7233 -110.4039 272° West 425 489 38,000  Level Salt Lake Center
10:06PM 40.7250 -110.5778 271° West 426 490 38,000  Level Salt Lake Center
10:07PM 40.7272 -110.7314 271° West 425 489 38,000  Level Salt Lake Center
10:08PM 40.7300 -110.8867 271° West 424 488 38,000  Level Salt Lake Center
10:09PM 40.7303 -111.0419 270° West 424 488 38,000  Level Salt Lake Center
10:10PM 40.7322 -111.1958 271° West 422 486 38,000  Level Salt Lake Center
10:11PM 40.7339 -111.3486 271° West 416 479 38,000  Level Salt Lake Center
10:12PM 40.7347 -111.5028 270° West 419 482 38,000  Level Salt Lake Center
10:13PM 40.7364 -111.6578 271° West 415 478 38,000  Level Salt Lake Center
10:14PM 40.7356 -111.8414 270° West 413 475 38,000  Level Salt Lake Center
10:15PM 40.7336 -111.9997 269° West 442 509 38,000  Level Salt Lake Center
10:16PM 40.7369 -112.1533 272° West 418 481 38,000  Level Salt Lake Center
10:17PM 40.7375 -112.3069 270° West 416 479 38,000  Level Salt Lake Center
10:18PM 40.7378 -112.4608 270° West 419 482 38,000  Level Salt Lake Center
10:19PM 40.7375 -112.6156 270° West 422 486 38,000  Level Salt Lake Center
10:20PM 40.7381 -112.7692 270° West 419 482 38,000  Level Salt Lake Center
10:21PM 40.7347 -112.9250 268° West 424 488 38,000  Level Salt Lake Center
10:22PM 40.7347 -113.0819 270° West 428 493 38,000  Level Salt Lake Center
10:23PM 40.7336 -113.2669 270° West 418 481 38,000  Level Salt Lake Center
10:24PM 40.7306 -113.4181 269° West 414 476 38,000  Level Salt Lake Center
10:25PM 40.7292 -113.5683 269° West 412 474 38,000  Level Salt Lake Center
10:26PM 40.7267 -113.7192 269° West 412 474 38,000  Level Salt Lake Center
10:27PM 40.7236 -113.8697 269° West 412 474 38,000  Level Salt Lake Center
10:28PM 40.7178 -114.0192 267° West 411 473 38,000  Level Salt Lake Center
10:29PM 40.7125 -114.1731 267° West 420 483 38,000  Level Salt Lake Center
10:30PM 40.7072 -114.3267 267° West 421 484 38,000  Level Salt Lake Center
10:31PM 40.7022 -114.5092 268° West 417 480 38,000  Level Salt Lake Center
10:32PM 40.6850 -114.6583 261° West 414 476 38,000  Level Salt Lake Center
10:33PM 40.6647 -114.7989 259° West 413 475 38,000  Level Salt Lake Center
10:34PM 40.6425 -114.9681 260° West 418 481 38,000  Level Salt Lake Center
10:35PM 40.6231 -115.1114 260° West 417 480 38,000  Level Salt Lake Center
10:36PM 40.5994 -115.2525 258° West 413 475 38,000  Level Salt Lake Center
10:37PM 40.5783 -115.4172 260° West 410 472 38,000  Level Salt Lake Center
10:38PM 40.5603 -115.5589 261° West 411 473 38,000  Level Salt Lake Center
10:39PM 40.5364 -115.7225 259° West 408 470 38,000  Level Salt Lake Center
10:40PM 40.5164 -115.8625 259° West 408 470 38,000  Level Salt Lake Center
10:42PM 40.4975 -116.0047 260° West 411 473 38,000  Level Salt Lake Center
10:43PM 40.4744 -116.1700 260° West 412 474 38,000  Level Salt Lake Center
10:44PM 40.4536 -116.3122 259° West 414 476 38,000  Level Salt Lake Center
10:45PM 40.4294 -116.4767 259° West 411 473 38,000  Level Salt Lake Center
10:46PM 40.4094 -116.6161 259° West 407 468 38,000  Level Salt Lake Center
10:47PM 40.3881 -116.7550 259° West 404 465 38,000  Level Salt Lake Center
10:48PM 40.3636 -116.9208 259° West 406 467 38,000  Level Salt Lake Center
10:49PM 40.3411 -117.0703 259° West 412 474 38,000  Level Salt Lake Center
10:50PM 40.3206 -117.2072 259° West 404 465 38,000  Level Salt Lake Center
10:51PM 40.2964 -117.3669 259° West 402 463 38,000  Level Salt Lake Center
10:52PM 40.2753 -117.5050 259° West 403 464 38,000  Level Salt Lake Center
10:53PM 40.2500 -117.6653 258° West 402 463 38,000  Level Salt Lake Center
10:53PM 40.2406 -117.7269 259° West 402 463 38,000  Level Oakland Center
10:54PM 40.2144 -117.8986 259° West 401 461 38,000 -60 Level Oakland Center
10:55PM 40.1917 -118.0406 258° West 401 461 37,900 -1,140 Descending Oakland Center
10:56PM 40.1681 -118.1839 258° West 403 464 35,800 -2,220 Descending Oakland Center
10:57PM 40.1436 -118.3308 258° West 413 475 33,500 -2,580 Descending Oakland Center
10:58PM 40.1203 -118.4792 258° West 419 482 30,600 -2,760 Descending Oakland Center
11:00PM 40.0961 -118.6253 258° West 414 476 27,900 -2,460 Descending Oakland Center
11:01PM 40.0731 -118.7642 258° West 398 458 25,600 -2,280 Descending Oakland Center
11:02PM 40.0514 -118.8931 258° West 371 427 23,300 -2,520 Descending Oakland Center
11:03PM 40.0292 -119.0178 257° West 357 411 20,500 -2,460 Descending Oakland Center
11:04PM 39.9981 -119.1375 251° West 351 404 18,300 -1,920 Descending Oakland Center
11:05PM 39.9769 -119.2767 259° West 326 375 16,600 -2,040 Descending Oakland Center
11:06PM 39.9508 -119.3847 253° West 322 371 14,200 -2,280 Descending Oakland Center
11:07PM 39.9039 -119.4764 236° Southwest 306 352 12,000 -1,860 Descending Oakland Center
11:08PM 39.8567 -119.5678 236° Southwest 304 350 10,500 -1,440 Descending Oakland Center
11:09PM 39.8136 -119.6506 236° Southwest 286 329 9,100 -900 Descending Oakland Center
11:10PM 39.7683 -119.7392 236° Southwest 278 320 8,700 -420 Descending Oakland Center